Time;durP1;ratioP1;P1;durP2;ratioP2;P2;SDS_P1;SDS_P2;PMS_P1;PMS_P2;Temp;Humidity;BMP_temperature;BMP_pressure;BME280_temperature;BME280_humidity;BME280_pressure;Samples;Min_cycle;Max_cycle;Signal;HPM_P1;HPM_P2
2022/05/02 00:01:24;;;;;;;17.33;10.20;;;;;;;10.49;77.14;99891.31;5035049;28;20049;-73
2022/05/02 00:03:50;;;;;;;17.23;11.35;;;;;;;10.47;77.30;99900.94;5034647;28;20033;-72
2022/05/02 00:06:15;;;;;;;15.63;10.60;;;;;;;10.44;77.46;99895.84;5035080;28;20034;-73
2022/05/02 00:08:41;;;;;;;18.58;11.05;;;;;;;10.40;77.34;99880.41;5034917;28;20087;-73
2022/05/02 00:11:06;;;;;;;15.10;10.52;;;;;;;10.35;77.30;99877.19;5034697;28;20074;-73
2022/05/02 00:13:32;;;;;;;15.70;10.90;;;;;;;10.34;77.29;99876.34;5034817;28;20376;-72
2022/05/02 00:15:58;;;;;;;17.67;10.82;;;;;;;10.34;77.28;99871.13;5034528;28;20167;-72
2022/05/02 00:18:23;;;;;;;14.10;11.10;;;;;;;10.36;77.50;99882.31;5034578;28;20484;-73
2022/05/02 00:20:49;;;;;;;18.35;11.35;;;;;;;10.36;77.52;99879.69;5034884;28;20022;-73
2022/05/02 00:23:14;;;;;;;17.17;11.63;;;;;;;10.28;77.77;99868.78;5034824;28;20022;-73
2022/05/02 00:25:40;;;;;;;17.33;10.70;;;;;;;10.29;77.47;99875.69;5034680;28;20462;-73
2022/05/02 00:28:10;;;;;;;17.63;11.25;;;;;;;10.24;77.70;99868.06;5033781;28;20675;-72
2022/05/02 00:30:35;;;;;;;15.73;10.73;;;;;;;10.21;78.01;99875.97;5034540;28;20037;-73
2022/05/02 00:33:01;;;;;;;15.95;12.00;;;;;;;10.08;77.87;99842.72;5034107;28;20767;-73
2022/05/02 00:35:26;;;;;;;18.60;11.30;;;;;;;10.20;78.40;99870.84;5034555;28;20029;-73
2022/05/02 00:37:52;;;;;;;13.45;10.65;;;;;;;10.14;78.73;99863.25;5034229;28;20029;-73
2022/05/02 00:40:18;;;;;;;17.67;11.70;;;;;;;10.12;78.75;99865.94;5034428;28;20385;-73
2022/05/02 00:42:45;;;;;;;17.70;11.32;;;;;;;10.08;78.92;99853.13;5034354;28;20029;-73
2022/05/02 00:45:12;;;;;;;14.68;10.80;;;;;;;10.06;79.08;99858.38;5033895;28;20045;-73
2022/05/02 00:47:38;;;;;;;17.02;10.77;;;;;;;10.11;79.52;99869.47;5033995;28;20026;-73
2022/05/02 00:50:05;;;;;;;17.15;11.32;;;;;;;10.07;79.76;99875.69;5033775;28;20155;-73
2022/05/02 00:52:31;;;;;;;18.35;11.18;;;;;;;10.00;79.72;99861.22;5033819;28;20026;-73
2022/05/02 00:54:56;;;;;;;17.95;11.05;;;;;;;10.02;79.78;99866.38;5033797;28;20044;-73
2022/05/02 00:57:23;;;;;;;13.85;10.48;;;;;;;9.99;80.24;99865.59;5033843;28;20049;-73
2022/05/02 00:59:48;;;;;;;17.45;11.70;;;;;;;9.89;80.25;99859.06;5033561;28;20026;-73
2022/05/02 01:02:15;;;;;;;22.02;11.07;;;;;;;9.93;80.63;99872.78;5033605;28;20029;-72
2022/05/02 01:04:42;;;;;;;13.73;10.88;;;;;;;9.91;80.82;99865.06;5033856;28;20053;-72
2022/05/02 01:07:20;;;;;;;15.35;10.85;;;;;;;9.84;80.91;99858.41;5033413;28;20119;-72
2022/05/02 01:09:50;;;;;;;15.18;10.85;;;;;;;9.79;81.00;99864.69;5033751;28;20112;-72
2022/05/02 01:12:18;;;;;;;14.73;9.60;;;;;;;9.75;81.21;99857.00;5033629;28;20052;-72
2022/05/02 01:14:47;;;;;;;14.00;9.98;;;;;;;9.80;81.47;99869.00;5033325;28;20386;-72
2022/05/02 01:17:12;;;;;;;15.05;9.88;;;;;;;9.81;81.65;99866.31;5033309;28;20068;-72
2022/05/02 01:19:38;;;;;;;16.05;10.93;;;;;;;9.82;81.49;99868.03;5033540;28;20061;-72
2022/05/02 01:22:04;;;;;;;12.63;9.68;;;;;;;9.73;81.54;99857.97;5033245;28;20026;-72
2022/05/02 01:24:41;;;;;;;15.23;9.93;;;;;;;9.75;81.50;99872.63;5033305;28;20029;-72
2022/05/02 01:27:08;;;;;;;14.60;10.57;;;;;;;9.71;81.79;99860.66;5031694;28;20415;-72
2022/05/02 01:29:35;;;;;;;15.15;10.93;;;;;;;9.69;82.19;99861.59;5033179;28;20461;-72
2022/05/02 01:32:05;;;;;;;12.20;9.40;;;;;;;9.65;82.16;99865.22;5033152;28;20032;-72
2022/05/02 01:34:30;;;;;;;13.40;10.23;;;;;;;9.53;82.74;99845.78;5033278;28;20029;-72
2022/05/02 01:36:56;;;;;;;14.23;11.25;;;;;;;9.53;82.70;99850.97;5033046;28;20035;-72
2022/05/02 01:39:21;;;;;;;14.68;10.35;;;;;;;9.53;83.18;99865.75;5032890;28;20042;-72
2022/05/02 01:41:48;;;;;;;15.32;10.65;;;;;;;9.52;83.28;99861.41;5033090;28;20108;-72
2022/05/02 01:44:13;;;;;;;14.40;10.60;;;;;;;9.50;83.05;99853.69;5032942;28;20388;-72
2022/05/02 01:46:39;;;;;;;15.77;10.00;;;;;;;9.40;83.12;99848.00;5032965;28;20037;-72
2022/05/02 01:49:04;;;;;;;21.70;11.25;;;;;;;9.32;82.72;99831.00;5032778;28;20049;-73
2022/05/02 01:51:29;;;;;;;17.50;11.07;;;;;;;9.39;82.72;99854.09;5032819;28;20025;-72
2022/05/02 01:53:55;;;;;;;14.07;10.90;;;;;;;9.41;83.26;99860.09;5032560;28;20022;-73
2022/05/02 01:56:20;;;;;;;16.35;11.63;;;;;;;9.31;84.48;99847.50;5032612;28;20025;-72
2022/05/02 01:58:46;;;;;;;15.90;12.55;;;;;;;9.35;85.14;99859.47;5032880;28;20025;-72
2022/05/02 02:01:11;;;;;;;16.75;12.13;;;;;;;9.30;85.83;99857.03;5032576;28;20044;-72
2022/05/02 02:03:36;;;;;;;13.68;10.95;;;;;;;9.19;86.28;99838.44;5032789;28;20029;-72
2022/05/02 02:06:02;;;;;;;13.98;10.85;;;;;;;9.21;86.39;99850.44;5032426;28;20025;-72
2022/05/02 02:08:36;;;;;;;17.35;11.98;;;;;;;9.09;86.54;99840.50;5032466;28;20053;-72
2022/05/02 02:11:06;;;;;;;16.73;11.82;;;;;;;9.08;87.04;99846.63;5032177;28;20029;-72
2022/05/02 02:13:32;;;;;;;15.30;11.35;;;;;;;9.13;87.35;99862.03;5032424;28;20025;-72
2022/05/02 02:15:58;;;;;;;15.57;12.45;;;;;;;9.10;87.97;99854.34;5032227;28;20029;-72
2022/05/02 02:18:24;;;;;;;22.10;11.77;;;;;;;8.99;88.25;99853.00;5032284;28;20040;-72
2022/05/02 02:20:53;;;;;;;15.80;11.63;;;;;;;8.94;88.91;99848.91;5032154;28;20029;-72
2022/05/02 02:23:20;;;;;;;15.93;11.60;;;;;;;8.92;89.61;99855.88;5032137;28;20496;-72
2022/05/02 02:25:45;;;;;;;17.45;11.85;;;;;;;8.95;89.89;99859.22;5032448;28;20037;-72
2022/05/02 02:28:15;;;;;;;17.13;11.07;;;;;;;8.89;89.97;99859.44;5032036;28;20030;-72
2022/05/02 02:30:42;;;;;;;17.70;12.55;;;;;;;8.80;90.12;99841.56;5032302;28;20060;-72
2022/05/02 02:33:08;;;;;;;14.63;10.85;;;;;;;8.70;90.30;99838.47;5031949;28;20032;-72
2022/05/02 02:35:33;;;;;;;15.45;11.20;;;;;;;8.80;90.30;99851.13;5032008;28;20038;-72
2022/05/02 02:37:59;;;;;;;16.13;11.98;;;;;;;8.65;90.70;99837.81;5031705;28;20045;-72
2022/05/02 02:40:24;;;;;;;15.43;11.43;;;;;;;8.76;90.89;99858.16;5031941;28;20151;-72
2022/05/02 02:42:49;;;;;;;16.67;11.25;;;;;;;8.67;90.46;99842.94;5032061;28;20030;-72
2022/05/02 02:45:15;;;;;;;16.10;11.77;;;;;;;8.70;90.75;99853.22;5031741;28;20178;-72
2022/05/02 02:47:42;;;;;;;18.27;12.05;;;;;;;8.61;90.73;99841.41;5031899;28;20469;-72
2022/05/02 02:50:09;;;;;;;17.88;11.75;;;;;;;8.67;90.39;99854.16;5031116;28;20033;-72
2022/05/02 02:52:34;;;;;;;16.45;11.25;;;;;;;8.62;90.50;99844.84;5031751;28;20025;-72
2022/05/02 02:55:00;;;;;;;17.00;11.57;;;;;;;8.59;90.07;99831.97;5031750;28;20421;-72
2022/05/02 02:57:25;;;;;;;17.33;11.35;;;;;;;8.60;89.72;99844.91;5031918;28;20494;-72
2022/05/02 02:59:50;;;;;;;15.75;11.65;;;;;;;8.63;89.43;99851.72;5031900;28;20029;-72
2022/05/02 03:02:16;;;;;;;24.40;11.85;;;;;;;8.61;88.84;99844.00;5031513;28;20037;-72
2022/05/02 03:07:27;;;;;;;15.52;11.70;;;;;;;8.59;89.36;99840.59;5031787;28;20063;-72
2022/05/02 03:09:53;;;;;;;18.42;11.52;;;;;;;8.52;89.51;99833.94;5031805;28;20090;-72
2022/05/02 03:12:20;;;;;;;16.90;11.70;;;;;;;8.58;90.14;99856.25;5030210;28;20030;-72
2022/05/02 03:14:45;;;;;;;16.33;11.27;;;;;;;8.44;89.68;99839.41;5031859;28;20041;-72
2022/05/02 03:17:11;;;;;;;19.05;12.90;;;;;;;8.57;89.86;99849.34;5031198;28;20033;-72
2022/05/02 03:19:37;;;;;;;19.55;12.02;;;;;;;8.63;90.22;99862.13;5031520;28;20099;-72
2022/05/02 03:22:03;;;;;;;15.05;12.13;;;;;;;8.66;90.74;99851.63;5031539;28;20163;-72
2022/05/02 03:24:28;;;;;;;16.95;11.68;;;;;;;8.67;92.26;99856.75;5031597;28;20116;-72
2022/05/02 03:26:54;;;;;;;16.05;12.20;;;;;;;8.58;92.41;99854.50;5031384;28;20026;-72
2022/05/02 03:29:19;;;;;;;18.73;12.48;;;;;;;8.58;92.63;99851.03;5031188;28;20044;-72
2022/05/02 03:31:45;;;;;;;17.50;11.73;;;;;;;8.63;92.71;99864.72;5031501;28;20026;-73
2022/05/02 03:34:10;;;;;;;16.17;12.60;;;;;;;8.52;93.13;99849.53;5030912;28;20022;-72
2022/05/02 03:36:36;;;;;;;18.27;12.93;;;;;;;8.56;93.27;99865.84;5031352;28;20500;-72
2022/05/02 03:39:02;;;;;;;13.52;11.95;;;;;;;8.55;93.85;99874.50;5030920;28;20389;-72
2022/05/02 03:41:27;;;;;;;19.42;12.48;;;;;;;8.50;93.81;99864.28;5031254;28;20030;-72
2022/05/02 03:43:53;;;;;;;18.92;12.80;;;;;;;8.44;93.82;99856.72;5031197;28;20111;-72
2022/05/02 03:46:18;;;;;;;19.35;13.30;;;;;;;8.43;93.87;99857.63;5030716;28;20460;-72
2022/05/02 03:48:46;;;;;;;14.30;11.40;;;;;;;8.45;94.46;99855.81;5030950;28;20029;-72
2022/05/02 03:51:12;;;;;;;16.25;12.85;;;;;;;8.42;94.44;99848.13;5030974;28;20068;-72
2022/05/02 03:53:37;;;;;;;14.98;13.43;;;;;;;8.45;94.40;99855.81;5031240;28;20033;-72
2022/05/02 03:56:03;;;;;;;21.25;13.80;;;;;;;8.44;94.57;99862.75;5030930;28;20470;-72
2022/05/02 03:58:29;;;;;;;20.08;13.43;;;;;;;8.39;94.61;99843.91;5030985;28;20113;-72
2022/05/02 04:00:54;;;;;;;16.77;13.63;;;;;;;8.42;94.83;99848.97;5031848;28;20087;-72
2022/05/02 04:03:20;;;;;;;21.30;14.07;;;;;;;8.41;95.79;99854.22;5034534;28;20112;-72
2022/05/02 04:05:46;;;;;;;20.63;13.68;;;;;;;8.37;95.34;99850.88;5034763;28;20022;-72
2022/05/02 04:08:11;;;;;;;17.45;14.27;;;;;;;8.47;95.67;99852.28;5034645;28;20632;-72
2022/05/02 04:10:37;;;;;;;19.25;13.95;;;;;;;8.65;94.99;99843.00;5034776;28;20036;-72
2022/05/02 04:13:02;;;;;;;21.35;14.13;;;;;;;8.99;93.69;99836.56;5034352;28;20022;-72
2022/05/02 04:15:27;;;;;;;22.48;14.70;;;;;;;9.43;91.62;99847.03;5034402;28;20025;-72
2022/05/02 04:17:55;;;;;;;18.20;13.52;;;;;;;9.63;89.30;99841.06;5034191;28;20461;-72
2022/05/02 04:20:21;;;;;;;21.27;13.70;;;;;;;9.82;87.80;99852.44;5034393;28;20033;-72
2022/05/02 04:22:47;;;;;;;19.90;14.23;;;;;;;9.66;87.32;99844.38;5034536;28;20040;-72
2022/05/02 04:25:12;;;;;;;18.02;13.57;;;;;;;9.68;87.53;99852.94;5034478;28;20032;-72
2022/05/02 04:27:38;;;;;;;18.67;14.63;;;;;;;9.64;87.57;99834.94;5034224;28;20076;-72
2022/05/02 04:30:03;;;;;;;17.70;13.52;;;;;;;10.32;85.41;99854.69;5033953;28;20037;-73
2022/05/02 04:32:30;;;;;;;17.17;13.52;;;;;;;11.26;81.74;99854.06;5034059;28;20075;-72
2022/05/02 04:34:58;;;;;;;17.77;13.60;;;;;;;12.02;76.66;99846.13;5034187;28;20080;-72
2022/05/02 04:37:24;;;;;;;18.23;13.02;;;;;;;12.56;73.74;99863.41;5034031;28;20048;-72
2022/05/02 04:39:49;;;;;;;21.38;13.57;;;;;;;12.68;72.02;99864.50;5034100;28;20030;-72
2022/05/02 04:42:15;;;;;;;17.40;12.88;;;;;;;12.89;71.26;99863.41;5033933;28;20143;-72
2022/05/02 04:44:40;;;;;;;18.55;12.98;;;;;;;13.27;68.59;99855.28;5033831;28;20029;-73
2022/05/02 04:47:06;;;;;;;18.05;13.55;;;;;;;13.57;67.60;99846.69;5033638;28;20613;-73
2022/05/02 04:49:32;;;;;;;15.50;12.32;;;;;;;13.84;65.20;99860.00;5034231;28;20025;-72
2022/05/02 04:51:57;;;;;;;21.00;13.13;;;;;;;13.72;63.97;99854.53;5034070;28;20036;-72
2022/05/02 04:54:22;;;;;;;18.05;12.68;;;;;;;13.84;64.64;99857.41;5033750;28;20029;-73
2022/05/02 04:56:48;;;;;;;17.40;12.88;;;;;;;14.15;63.47;99862.53;5033764;28;20461;-72
2022/05/02 04:59:13;;;;;;;16.70;12.43;;;;;;;14.69;61.71;99869.91;5033528;28;20366;-72
2022/05/02 05:01:39;;;;;;;17.05;12.95;;;;;;;15.04;60.42;99864.28;5033729;28;20515;-72
2022/05/02 05:04:04;;;;;;;19.73;13.40;;;;;;;14.77;59.14;99874.69;5033754;28;20025;-72
2022/05/02 05:06:29;;;;;;;15.32;12.90;;;;;;;14.48;59.94;99851.91;5033712;28;20025;-73
2022/05/02 05:08:55;;;;;;;20.13;13.48;;;;;;;14.66;59.68;99875.31;5033633;28;20021;-72
2022/05/02 05:11:45;;;;;;;17.45;12.60;;;;;;;14.77;59.32;99870.28;5033408;28;20504;-72
2022/05/02 05:17:31;;;;;;;19.13;14.10;;;;;;;16.20;54.22;99870.84;5033617;28;20091;-72
2022/05/02 05:20:19;;;;;;;16.90;12.95;;;;;;;16.24;53.56;99868.88;5033621;28;20033;-72
2022/05/02 05:23:02;;;;;;;19.50;13.43;;;;;;;15.76;55.23;99857.16;5033716;28;20527;-72
2022/05/02 05:25:39;;;;;;;18.17;13.10;;;;;;;15.65;55.95;99882.31;5033357;28;20041;-72
2022/05/02 05:28:45;;;;;;;16.88;13.60;;;;;;;15.61;55.87;99872.09;5033324;28;20029;-72
2022/05/02 05:31:26;;;;;;;17.95;13.60;;;;;;;15.58;56.24;99872.28;4991267;28;20085;-73
2022/05/02 05:34:10;;;;;;;17.08;13.10;;;;;;;16.23;54.54;99868.97;4991519;28;20085;-72
2022/05/02 05:36:35;;;;;;;19.50;13.73;;;;;;;17.51;49.88;99865.34;4991425;28;20049;-72
2022/05/02 05:39:05;;;;;;;19.50;13.18;;;;;;;17.66;48.39;99868.69;4991450;28;20117;-72
2022/05/02 05:42:02;;;;;;;18.70;13.63;;;;;;;16.88;50.49;99858.41;4991356;28;20034;-72
2022/05/02 05:45:04;;;;;;;17.83;13.40;;;;;;;16.71;51.89;99889.31;4991075;28;20089;-72
2022/05/02 05:47:49;;;;;;;22.33;13.60;;;;;;;16.41;52.84;99880.88;4933250;29;20419;-72
2022/05/02 05:50:22;;;;;;;18.17;14.30;;;;;;;16.57;52.71;99865.75;4932932;29;20421;-72
2022/05/02 05:53:13;;;;;;;23.00;15.20;;;;;;;16.87;50.94;99867.25;4933205;29;20035;-72
2022/05/02 05:55:58;;;;;;;17.70;13.77;;;;;;;17.74;48.47;99865.47;4933297;29;20534;-72
2022/05/02 05:58:46;;;;;;;18.58;13.80;;;;;;;17.19;49.68;99865.00;4933187;29;20048;-72
2022/05/02 06:01:14;;;;;;;20.63;13.52;;;;;;;17.11;51.19;99862.09;4932925;29;20118;-72
2022/05/02 06:04:04;;;;;;;17.13;14.20;;;;;;;17.44;50.58;99869.34;4933030;29;20044;-72
2022/05/02 06:06:30;;;;;;;17.30;14.27;;;;;;;17.85;48.50;99868.19;4913887;29;20043;-72
2022/05/02 06:08:58;;;;;;;19.17;14.13;;;;;;;18.40;48.00;99861.44;4913955;29;20563;-72
2022/05/02 06:11:26;;;;;;;21.33;14.25;;;;;;;19.83;43.11;99859.88;4913843;29;20106;-72
2022/05/02 06:13:56;;;;;;;19.77;13.68;;;;;;;20.74;41.59;99861.16;4914002;29;20040;-73
2022/05/02 06:19:13;;;;;;;21.45;13.65;;;;;;;20.41;42.03;99873.56;4914126;29;20103;-72
2022/05/02 06:21:46;;;;;;;17.15;13.25;;;;;;;20.51;41.98;99873.66;4923756;29;20032;-73
2022/05/02 06:24:13;;;;;;;15.93;12.95;;;;;;;22.03;39.70;99869.19;4950286;28;20040;-73
2022/05/02 06:26:40;;;;;;;18.48;13.77;;;;;;;24.02;34.56;99876.03;4951798;29;20115;-73
2022/05/02 06:29:10;;;;;;;16.67;13.63;;;;;;;25.17;32.25;99886.56;4951823;29;20070;-73
2022/05/02 06:31:36;;;;;;;18.95;12.93;;;;;;;25.50;31.63;99879.53;4951887;29;20035;-73
2022/05/02 06:34:03;;;;;;;15.98;13.45;;;;;;;26.17;30.44;99884.00;4951783;29;20383;-73
2022/05/02 06:36:50;;;;;;;21.23;14.20;;;;;;;25.69;30.64;99891.75;4951594;29;20400;-73
2022/05/02 06:39:34;;;;;;;20.05;13.57;;;;;;;24.37;32.96;99891.16;4951594;28;20452;-73
2022/05/02 06:42:43;;;;;;;16.40;13.43;;;;;;;24.15;33.09;99893.31;4951944;29;20073;-73
2022/05/02 06:45:34;;;;;;;17.05;14.05;;;;;;;26.44;30.91;99886.38;4970634;28;20062;-73
2022/05/02 06:48:05;;;;;;;17.60;12.90;;;;;;;29.81;26.62;99890.81;4970799;28;20394;-73
2022/05/02 06:50:32;;;;;;;19.90;12.30;;;;;;;32.13;23.64;99888.78;4970679;28;20035;-73
2022/05/02 06:53:22;;;;;;;16.67;11.35;;;;;;;34.29;21.35;99887.69;4954535;28;20410;-73
2022/05/02 06:56:15;;;;;;;15.18;12.20;;;;;;;35.79;19.00;99890.06;4970720;28;20038;-74
2022/05/02 06:59:05;;;;;;;12.95;10.90;;;;;;;36.59;17.72;99884.25;4970866;28;20094;-74
2022/05/02 07:01:45;;;;;;;;;;;;;;;37.52;16.89;99887.91;4970902;28;20050;-74
2022/05/02 07:04:29;;;;;;;14.07;11.93;;;;;;;37.39;15.20;99886.28;4970726;28;19952;-74
2022/05/02 07:07:15;;;;;;;13.75;10.95;;;;;;;37.70;16.72;99879.53;4970678;28;20031;-74
2022/05/02 07:09:44;;;;;;;18.45;11.38;;;;;;;38.37;15.45;99882.38;4954555;28;20047;-74
2022/05/02 07:12:23;;;;;;;;;;;;;;;37.92;15.51;99875.06;4971090;28;20491;-74
2022/05/02 07:15:04;;;;;;;14.85;10.43;;;;;;;38.19;15.44;99869.81;4970631;28;19910;-74
2022/05/02 07:17:47;;;;;;;13.30;10.60;;;;;;;38.00;14.77;99864.88;4970169;28;20041;-74
2022/05/02 07:20:23;;;;;;;12.27;10.32;;;;;;;37.59;15.36;99872.25;4986712;28;20033;-74
2022/05/02 07:23:11;;;;;;;12.23;9.82;;;;;;;38.47;14.58;99870.81;5031796;28;20037;-74
2022/05/02 07:25:43;;;;;;;13.32;9.85;;;;;;;38.10;14.83;99865.88;4970255;28;20134;-74
2022/05/02 07:28:33;;;;;;;13.52;10.88;;;;;;;38.37;14.67;99862.50;4970383;28;20075;-74
2022/05/02 07:31:00;;;;;;;11.88;10.30;;;;;;;39.05;14.21;99872.19;4970530;28;20066;-74
2022/05/02 07:33:36;;;;;;;11.10;9.77;;;;;;;39.40;14.08;99865.53;4970253;28;20177;-74
2022/05/02 07:36:02;;;;;;;16.52;11.38;;;;;;;39.30;14.09;99852.63;4971688;28;20461;-74
2022/05/02 07:38:33;;;;;;;14.10;10.50;;;;;;;39.67;13.87;99871.88;4974090;28;20532;-74
2022/05/02 07:43:50;;;;;;;14.05;10.65;;;;;;;40.77;13.49;99871.38;4974572;28;20137;-74
2022/05/02 07:46:20;;;;;;;17.42;10.63;;;;;;;40.56;14.05;99858.72;4973627;28;20061;-74
2022/05/02 07:48:48;;;;;;;14.25;10.43;;;;;;;40.42;13.59;99862.97;4974010;28;20038;-74
2022/05/02 07:51:14;;;;;;;13.23;11.05;;;;;;;38.64;14.31;99868.91;4974072;28;20130;-74
2022/05/02 07:53:41;;;;;;;14.63;10.70;;;;;;;37.74;14.82;99878.00;4973931;28;20034;-74
2022/05/02 07:56:10;;;;;;;17.52;11.63;;;;;;;36.42;16.34;99863.22;4973943;28;20051;-74
2022/05/02 07:58:39;;;;;;;14.18;11.13;;;;;;;34.81;17.59;99874.75;4973762;28;20508;-74
2022/05/02 08:01:05;;;;;;;16.55;12.75;;;;;;;33.49;18.84;99871.97;4973979;28;20039;-72
2022/05/02 08:03:30;;;;;;;14.52;12.40;;;;;;;31.41;20.39;99873.25;5025317;28;20497;-73
2022/05/02 08:06:02;;;;;;;15.25;11.90;;;;;;;29.90;22.40;99864.66;5035147;28;20160;-73
2022/05/02 08:08:52;;;;;;;16.05;13.68;;;;;;;28.90;23.32;99867.13;5048776;28;20536;-73
2022/05/02 08:11:34;;;;;;;19.17;13.13;;;;;;;28.55;24.08;99864.97;5042667;28;20454;-73
2022/05/02 08:14:12;;;;;;;12.35;11.02;;;;;;;28.12;24.98;99865.66;5042484;28;20033;-73
2022/05/02 08:16:45;;;;;;;16.35;12.23;;;;;;;27.89;24.54;99863.81;5042401;28;20033;-73
2022/05/02 08:19:25;;;;;;;16.70;12.30;;;;;;;27.10;25.42;99863.88;5042683;28;20115;-73
2022/05/02 08:27:15;;;;;;;18.98;13.63;;;;;;;25.47;26.85;99869.19;5044379;28;20494;-73
2022/05/02 08:28:07;;;;;;;17.20;13.25;;;;;;;23.57;30.57;99879.56;4989307;28;20038;-73
2022/05/02 08:30:56;;;;;;;16.05;11.85;;;;;;;23.78;31.03;99874.00;4991296;28;20121;-73
2022/05/02 08:33:26;;;;;;;18.73;13.35;;;;;;;23.77;30.60;99867.84;4989304;28;20035;-73
2022/05/02 08:36:13;;;;;;;16.88;12.95;;;;;;;23.52;30.74;99873.88;4991651;28;20042;-73
2022/05/02 08:39:04;;;;;;;17.15;12.77;;;;;;;23.33;30.69;99875.63;4990362;28;20482;-73
2022/05/02 08:41:30;;;;;;;19.17;13.20;;;;;;;23.32;31.49;99878.44;4978931;28;20092;-73
2022/05/02 08:44:29;;;;;;;18.67;13.60;;;;;;;22.69;31.73;99873.75;4992026;28;20038;-73
2022/05/02 08:47:10;;;;;;;17.42;12.85;;;;;;;22.38;31.68;99873.13;4989784;28;20038;-73
2022/05/02 08:50:06;;;;;;;19.33;12.63;;;;;;;21.88;32.34;99870.59;4992126;28;20038;-73
2022/05/02 08:52:58;;;;;;;15.05;11.88;;;;;;;21.90;32.92;99866.78;4992280;28;20030;-73
2022/05/02 08:55:56;;;;;;;15.90;12.55;;;;;;;21.93;33.15;99868.34;4992343;28;20042;-73
2022/05/02 08:58:42;;;;;;;14.40;12.13;;;;;;;21.91;33.70;99862.31;4992236;28;20553;-73
2022/05/02 09:01:28;;;;;;;15.23;11.45;;;;;;;21.83;32.97;99864.88;4992274;28;20470;-73
2022/05/02 09:04:12;;;;;;;17.55;12.70;;;;;;;21.62;33.34;99862.31;4999841;28;20091;-73
2022/05/02 09:07:05;;;;;;;17.33;12.70;;;;;;;21.47;33.54;99861.88;5033715;28;20130;-73
2022/05/02 09:10:07;;;;;;;17.52;12.43;;;;;;;21.34;35.61;99862.09;5033651;28;20056;-73
2022/05/02 09:12:55;;;;;;;22.17;13.10;;;;;;;20.90;35.07;99850.91;5033749;28;20087;-73
2022/05/02 09:15:45;;;;;;;16.38;11.38;;;;;;;20.41;35.65;99868.28;5033605;28;20021;-73
2022/05/02 09:18:23;;;;;;;15.73;12.32;;;;;;;20.47;37.11;99868.72;5033915;28;20029;-73
2022/05/02 09:20:59;;;;;;;18.73;13.23;;;;;;;20.59;37.89;99860.63;5033716;28;20053;-73
2022/05/02 09:23:46;;;;;;;16.73;13.55;;;;;;;20.52;37.92;99871.84;5033500;28;20038;-73
2022/05/02 09:26:49;;;;;;;16.92;12.75;;;;;;;20.42;36.60;99853.25;5033780;28;20033;-73
2022/05/02 09:29:36;;;;;;;18.75;11.60;;;;;;;20.22;36.91;99857.56;5033578;28;20488;-73
2022/05/02 09:32:12;;;;;;;20.40;12.23;;;;;;;20.11;36.87;99852.34;5033565;28;20025;-73
2022/05/02 09:34:51;;;;;;;15.82;11.98;;;;;;;19.66;37.41;99839.28;5033110;28;20469;-73
2022/05/02 09:37:47;;;;;;;17.45;12.65;;;;;;;19.34;38.38;99852.41;5033752;28;20031;-73
2022/05/02 09:40:16;;;;;;;16.10;12.70;;;;;;;19.02;38.38;99841.78;5033365;28;20056;-73
2022/05/02 09:43:05;;;;;;;16.80;12.88;;;;;;;18.81;39.22;99847.75;5033345;28;20030;-73
2022/05/02 09:52:02;;;;;;;16.48;12.00;;;;;;;19.08;39.01;99836.84;5013347;28;20133;-73
2022/05/02 09:57:33;;;;;;;13.85;10.80;;;;;;;19.05;36.48;99838.91;5013211;28;20052;-73
2022/05/02 10:02:49;;;;;;;20.65;11.77;;;;;;;19.17;38.02;99828.22;5013372;28;20088;-72
2022/05/02 10:05:45;;;;;;;16.45;10.75;;;;;;;19.23;37.40;99834.78;5012960;28;20026;-73
2022/05/02 10:08:10;;;;;;;15.88;10.70;;;;;;;19.35;36.43;99822.41;5013213;28;20072;-73
2022/05/02 10:10:56;;;;;;;12.48;9.20;;;;;;;19.39;35.47;99806.19;5012970;28;20054;-73
2022/05/02 10:13:58;;;;;;;13.88;9.70;;;;;;;19.57;34.68;99819.72;5013170;28;20033;-73
2022/05/02 10:17:03;;;;;;;10.45;8.57;;;;;;;19.57;31.72;99816.22;5012465;28;20026;-73
2022/05/02 10:20:10;;;;;;;12.90;9.55;;;;;;;19.55;32.74;99812.84;5021372;28;20041;-73
2022/05/02 10:22:45;;;;;;;17.13;9.95;;;;;;;19.53;32.97;99809.50;5023197;28;20057;-73
2022/05/02 10:25:19;;;;;;;12.70;9.45;;;;;;;19.55;32.50;99803.16;5012745;28;20029;-72
2022/05/02 10:28:08;;;;;;;13.27;8.77;;;;;;;19.59;31.44;99799.31;5012531;28;20022;-73
2022/05/02 10:31:21;;;;;;;11.23;9.57;;;;;;;19.67;32.48;99796.03;5012446;28;20034;-73
2022/05/02 10:33:51;;;;;;;10.90;8.68;;;;;;;19.39;32.11;99790.34;4932472;29;20056;-73
2022/05/02 10:36:23;;;;;;;12.97;8.83;;;;;;;19.52;32.53;99795.47;4932790;29;20079;-73
2022/05/02 10:38:55;;;;;;;13.43;8.75;;;;;;;19.60;33.64;99773.72;4932584;29;20051;-73
2022/05/02 10:41:52;;;;;;;11.45;8.18;;;;;;;19.67;32.53;99782.81;4932628;29;20091;-73
2022/05/02 10:44:18;;;;;;;10.60;7.97;;;;;;;19.63;31.92;99779.59;4943843;29;20047;-73
2022/05/02 10:46:46;;;;;;;11.75;8.98;;;;;;;19.63;32.11;99762.91;4969181;28;20438;-73
2022/05/02 10:49:27;;;;;;;10.38;8.23;;;;;;;19.81;32.04;99779.06;4970770;28;20066;-73
2022/05/02 10:52:00;;;;;;;11.27;7.63;;;;;;;19.72;30.28;99777.16;4970861;28;20042;-73
2022/05/02 10:54:46;;;;;;;9.15;6.90;;;;;;;19.68;28.79;99771.31;4970616;28;20038;-73
2022/05/02 10:57:14;;;;;;;13.20;7.05;;;;;;;19.73;30.23;99777.06;4970795;28;20173;-73
2022/05/02 10:59:44;;;;;;;9.88;7.70;;;;;;;19.79;29.25;99759.84;4970884;28;20042;-73
2022/05/02 11:03:03;;;;;;;10.77;7.50;;;;;;;19.87;30.78;99768.81;4970502;28;20049;-73
2022/05/02 11:05:40;;;;;;;10.38;7.30;;;;;;;19.97;30.84;99768.88;4913262;29;20036;-73
2022/05/02 11:08:17;;;;;;;9.68;7.07;;;;;;;20.16;32.46;99765.53;4913401;29;20052;-73
2022/05/02 11:10:47;;;;;;;12.50;8.80;;;;;;;20.18;32.88;99768.88;4899274;29;20041;-73
2022/05/02 11:13:20;;;;;;;;;;;;;;;20.12;32.51;99761.47;4894848;29;20489;-73
2022/05/02 11:16:21;;;;;;;11.85;8.55;;;;;;;20.08;32.50;99762.69;4894161;29;20289;-73
2022/05/02 11:22:08;;;;;;;13.77;8.77;;;;;;;19.84;33.30;99755.00;4930181;29;20045;-73
2022/05/02 11:24:47;;;;;;;11.68;8.45;;;;;;;19.76;32.72;99742.41;4931961;29;20627;-73
2022/05/02 11:27:27;;;;;;;11.55;8.48;;;;;;;19.64;32.05;99744.31;4932076;29;20044;-73
2022/05/02 11:30:06;;;;;;;10.00;7.88;;;;;;;19.67;32.45;99743.19;4932246;29;20028;-73
2022/05/02 11:32:56;;;;;;;11.85;8.15;;;;;;;19.77;32.70;99745.94;4931943;29;20040;-73
2022/05/02 11:35:28;;;;;;;9.38;8.40;;;;;;;19.59;32.54;99733.25;4938068;29;20030;-73
2022/05/02 11:38:02;;;;;;;11.25;7.68;;;;;;;19.58;33.23;99744.75;4919243;29;20062;-73
2022/05/02 11:40:33;;;;;;;8.93;7.63;;;;;;;19.59;32.94;99740.31;5031655;28;20048;-73
2022/05/02 11:42:58;;;;;;;10.63;7.65;;;;;;;19.37;32.84;99720.13;5031656;28;20025;-73
2022/05/02 11:45:51;;;;;;;10.15;7.85;;;;;;;19.50;33.17;99736.63;5023981;28;20096;-73
2022/05/02 11:48:20;;;;;;;10.45;7.22;;;;;;;19.38;33.27;99738.50;4950925;29;20039;-73
2022/05/02 11:50:47;;;;;;;10.73;7.85;;;;;;;19.28;33.28;99732.28;4950787;28;20475;-73
2022/05/02 11:53:14;;;;;;;12.45;7.55;;;;;;;19.17;33.48;99719.97;4963138;28;20047;-73
2022/05/02 11:55:42;;;;;;;9.60;7.55;;;;;;;19.31;33.48;99731.19;4969969;28;20230;-73
2022/05/02 11:58:34;;;;;;;12.15;7.55;;;;;;;19.45;33.91;99721.16;4970112;28;20177;-73
2022/05/02 12:01:05;;;;;;;8.55;6.78;;;;;;;19.56;34.11;99715.00;4970340;28;20414;-73
2022/05/02 12:03:40;;;;;;;8.18;7.30;;;;;;;19.62;32.83;99721.59;4970015;28;20027;-73
2022/05/02 12:06:13;;;;;;;11.23;7.75;;;;;;;19.60;33.96;99705.03;4970260;28;20073;-73
2022/05/02 12:08:45;;;;;;;9.07;7.13;;;;;;;19.86;34.09;99714.28;4969853;28;20030;-73
2022/05/02 12:11:13;;;;;;;10.93;8.38;;;;;;;19.82;33.17;99714.66;4970156;28;20034;-73
2022/05/02 12:13:41;;;;;;;9.35;7.22;;;;;;;19.62;33.70;99701.28;4969742;28;20069;-73
2022/05/02 12:16:11;;;;;;;15.23;7.60;;;;;;;19.64;33.58;99720.53;4970038;28;20053;-73
2022/05/02 12:18:40;;;;;;;9.13;7.18;;;;;;;19.55;33.64;99717.75;4969737;28;20057;-73
2022/05/02 12:21:08;;;;;;;10.15;7.20;;;;;;;19.52;33.61;99715.38;4970108;28;20054;-73